Time;durP1;ratioP1;P1;durP2;ratioP2;P2;SDS_P1;SDS_P2;PMS_P1;PMS_P2;Temp;Humidity;BMP_temperature;BMP_pressure;BME280_temperature;BME280_humidity;BME280_pressure;Samples;Min_cycle;Max_cycle;Signal;HPM_P1;HPM_P2
2021/09/02 00:00:50;;;;;;;4.80;2.90;;;9.10;99.90;8.40;97610.00;;;;4970066;28;20223;-82
2021/09/02 00:03:40;;;;;;;4.03;2.37;;;8.90;99.90;8.40;97615.00;;;;4972049;28;20207;-81
2021/09/02 00:06:29;;;;;;;4.57;3.23;;;8.80;99.90;8.20;97606.00;;;;4975254;28;20216;-80
2021/09/02 00:09:18;;;;;;;7.57;2.90;;;8.70;99.90;8.20;97611.00;;;;4972984;28;20230;-82
2021/09/02 00:12:07;;;;;;;4.80;2.63;;;8.70;99.90;8.30;97609.00;;;;4973787;28;20208;-82
2021/09/02 00:14:56;;;;;;;6.37;3.63;;;8.60;99.90;8.50;97602.00;;;;4973173;28;20207;-80
2021/09/02 00:17:44;;;;;;;3.90;2.70;;;8.60;99.90;8.60;97610.00;;;;4973191;28;20207;-82
2021/09/02 00:20:35;;;;;;;3.33;2.93;;;8.70;99.90;8.80;97606.00;;;;4973343;28;20659;-82
2021/09/02 00:23:23;;;;;;;3.10;2.80;;;8.80;99.90;8.90;97610.00;;;;4974146;28;20203;-81
2021/09/02 00:26:12;;;;;;;3.73;2.70;;;8.90;99.90;8.60;97610.00;;;;4973543;28;20212;-81
2021/09/02 00:29:01;;;;;;;5.50;3.83;;;8.90;99.90;8.60;97616.00;;;;4971720;28;20583;-82
2021/09/02 00:31:50;;;;;;;3.43;2.80;;;8.90;99.90;8.70;97599.00;;;;4971251;28;20238;-80
2021/09/02 00:34:38;;;;;;;4.27;3.20;;;8.90;99.90;8.50;97607.00;;;;4973082;28;20207;-80
2021/09/02 00:37:29;;;;;;;6.50;3.10;;;7.90;99.90;8.30;97601.00;;;;4972517;28;20199;-79
2021/09/02 00:40:18;;;;;;;3.47;3.10;;;8.80;99.90;8.10;97598.00;;;;4972117;28;20231;-81
2021/09/02 00:43:06;;;;;;;5.50;3.20;;;8.60;99.90;8.20;97611.00;;;;4971956;28;20223;-80
2021/09/02 00:45:55;;;;;;;3.40;2.63;;;8.60;99.90;8.20;97603.00;;;;4972553;28;20210;-81
2021/09/02 00:48:47;;;;;;;5.37;2.40;;;9.10;99.90;8.50;97604.00;;;;4972386;28;20215;-81
2021/09/02 00:51:36;;;;;;;4.53;3.50;;;8.60;99.90;8.70;97611.00;;;;4962473;28;20235;-80
2021/09/02 00:54:26;;;;;;;4.57;2.70;;;8.70;99.90;8.70;97610.00;;;;4970760;28;20222;-82
2021/09/02 00:57:17;;;;;;;3.63;2.67;;;8.80;99.90;8.50;97617.00;;;;4971825;28;20218;-82
2021/09/02 01:00:10;;;;;;;4.63;2.60;;;8.80;99.90;8.40;97617.00;;;;4971686;28;20227;-82
2021/09/02 01:02:58;;;;;;;3.70;2.80;;;8.80;99.90;8.40;97614.00;;;;4970851;28;20219;-81
2021/09/02 01:05:48;;;;;;;4.07;2.77;;;8.70;99.90;8.30;97611.00;;;;4972803;28;20681;-81
2021/09/02 01:08:38;;;;;;;3.60;3.30;;;8.70;99.90;8.20;97611.00;;;;4970562;28;20206;-81
2021/09/02 01:11:28;;;;;;;4.97;2.87;;;8.60;99.90;8.30;97613.00;;;;4971196;28;20246;-81
2021/09/02 01:14:17;;;;;;;3.70;3.20;;;8.60;99.90;8.40;97605.00;;;;4961251;28;20196;-80
2021/09/02 01:17:06;;;;;;;3.17;2.77;;;8.60;99.90;8.10;97595.00;;;;4970823;28;20582;-80
2021/09/02 01:19:56;;;;;;;3.33;2.83;;;8.50;99.90;7.80;97607.00;;;;4971279;28;20218;-81
2021/09/02 01:22:47;;;;;;;3.53;2.73;;;8.50;99.90;8.10;97604.00;;;;4971697;28;20222;-81
2021/09/02 01:25:42;;;;;;;3.80;3.03;;;8.40;99.90;7.90;97606.00;;;;4971697;28;20199;-79
2021/09/02 01:28:31;;;;;;;3.07;2.73;;;8.40;99.90;7.70;97606.00;;;;4970406;28;20222;-82
2021/09/02 01:31:22;;;;;;;4.20;3.40;;;8.30;99.90;7.90;97600.00;;;;4969361;28;20235;-80
2021/09/02 01:34:10;;;;;;;3.20;2.90;;;8.30;99.90;7.80;97599.00;;;;4971736;28;20210;-82
2021/09/02 01:36:59;;;;;;;5.73;3.47;;;8.20;99.90;8.10;97605.00;;;;4970072;28;20203;-81
2021/09/02 01:39:49;;;;;;;3.47;3.17;;;8.30;99.90;8.10;97599.00;;;;4969872;28;20204;-80
2021/09/02 01:42:39;;;;;;;4.63;3.43;;;8.30;99.90;7.80;97607.00;;;;4970875;28;20556;-81
2021/09/02 01:45:28;;;;;;;4.67;3.50;;;8.30;99.90;7.50;97602.00;;;;4971049;28;20203;-79
2021/09/02 01:48:17;;;;;;;3.97;3.07;;;8.20;99.90;7.60;97595.00;;;;4959160;28;20243;-79
2021/09/02 01:51:05;;;;;;;4.20;2.90;;;8.10;99.90;7.60;97595.00;;;;4969567;28;20775;-81
2021/09/02 01:53:54;;;;;;;3.13;2.50;;;8.10;99.90;7.50;97597.00;;;;4971628;28;20211;-80
2021/09/02 01:56:43;;;;;;;4.63;3.07;;;8.00;99.90;7.60;97598.00;;;;4970909;28;20210;-80
2021/09/02 01:59:33;;;;;;;9.23;4.00;;;8.00;99.90;7.70;97604.00;;;;4970961;28;20565;-81
2021/09/02 02:02:22;;;;;;;3.17;2.90;;;8.10;99.90;7.70;97594.00;;;;4969559;28;20207;-80
2021/09/02 02:05:12;;;;;;;3.27;2.53;;;8.10;99.90;7.70;97598.00;;;;4972499;28;20214;-82
2021/09/02 02:08:01;;;;;;;2.93;2.63;;;8.10;99.90;7.40;97589.00;;;;4974794;28;20218;-82
2021/09/02 02:10:50;;;;;;;4.47;3.37;;;8.00;99.90;7.20;97590.00;;;;4975640;28;20613;-80
2021/09/02 02:13:39;;;;;;;5.10;3.53;;;7.90;99.90;7.50;97582.00;;;;4974534;28;20207;-81
2021/09/02 02:16:29;;;;;;;8.23;3.90;;;7.80;99.90;7.70;97587.00;;;;4973666;28;20688;-82
2021/09/02 02:19:18;;;;;;;3.80;2.80;;;7.90;99.90;7.00;97581.00;;;;4975438;28;20664;-83
2021/09/02 02:22:06;;;;;;;5.03;3.47;;;7.80;99.90;7.20;97591.00;;;;4975333;28;20208;-81
2021/09/02 02:24:55;;;;;;;3.37;2.57;;;7.70;99.90;7.20;97589.00;;;;4973507;28;20211;-81
2021/09/02 02:27:52;;;;;;;4.57;3.40;;;7.70;99.90;7.60;97586.00;;;;4974148;28;20200;-82
2021/09/02 02:30:41;;;;;;;4.03;2.83;;;7.80;99.90;7.80;97591.00;;;;4972751;28;20723;-80
2021/09/02 02:33:31;;;;;;;4.00;2.80;;;7.80;99.90;7.70;97588.00;;;;4973677;28;20224;-80
2021/09/02 02:36:20;;;;;;;3.97;3.30;;;7.70;99.90;7.40;97580.00;;;;4973518;28;20211;-80
2021/09/02 02:39:09;;;;;;;6.10;3.40;;;7.90;99.90;7.60;97582.00;;;;4974752;28;20199;-79
2021/09/02 02:42:00;;;;;;;3.77;3.10;;;7.90;99.90;7.80;97580.00;;;;4973802;28;20294;-82
2021/09/02 02:44:48;;;;;;;5.33;2.90;;;8.00;99.90;7.40;97570.00;;;;4973520;28;20228;-80
2021/09/02 02:47:38;;;;;;;8.77;4.53;;;7.90;99.90;7.40;97579.00;;;;4973255;28;20687;-81
2021/09/02 02:50:29;;;;;;;3.60;3.27;;;7.90;99.90;7.70;97581.00;;;;4974832;28;20231;-82
2021/09/02 02:53:18;;;;;;;3.97;3.53;;;7.90;99.90;7.70;97586.00;;;;4973934;28;20234;-81
2021/09/02 02:56:07;;;;;;;4.50;2.67;;;8.00;99.90;7.30;97579.00;;;;4974268;28;20199;-79
2021/09/02 02:58:56;;;;;;;4.17;3.57;;;7.90;99.90;7.10;97580.00;;;;4974719;28;20218;-83
2021/09/02 03:01:45;;;;;;;3.67;3.30;;;7.80;99.90;7.10;97574.00;;;;4972309;28;20235;-81
2021/09/02 03:04:34;;;;;;;4.23;2.80;;;7.70;99.90;7.10;97574.00;;;;4974100;28;20222;-82
2021/09/02 03:07:24;;;;;;;3.77;2.90;;;7.60;99.90;7.30;97586.00;;;;4972728;28;20206;-81
2021/09/02 03:10:12;;;;;;;5.43;3.27;;;7.60;99.90;7.20;97579.00;;;;4972956;28;20227;-80
2021/09/02 03:13:01;;;;;;;3.90;3.30;;;7.60;99.90;7.30;97578.00;;;;4972732;28;20692;-81
2021/09/02 03:15:50;;;;;;;4.70;3.23;;;7.60;99.90;7.30;97578.00;;;;4973366;28;20700;-82
2021/09/02 03:18:39;;;;;;;4.70;3.30;;;7.60;99.90;7.40;97591.00;;;;4983718;28;20214;-81
2021/09/02 03:21:27;;;;;;;3.60;3.13;;;7.70;99.90;7.40;97592.00;;;;4985418;28;20227;-81
2021/09/02 03:24:17;;;;;;;4.40;3.50;;;7.70;99.90;7.50;97589.00;;;;4983533;28;20230;-82
2021/09/02 03:27:06;;;;;;;4.07;3.47;;;7.70;99.90;7.60;97601.00;;;;4973531;28;20211;-83
2021/09/02 03:29:55;;;;;;;6.73;3.57;;;7.80;99.90;7.60;97592.00;;;;4973297;28;20203;-82
2021/09/02 03:32:44;;;;;;;4.57;3.00;;;7.90;99.90;7.60;97603.00;;;;4968867;28;20231;-83
2021/09/02 03:35:33;;;;;;;5.03;3.83;;;7.90;99.90;7.80;97599.00;;;;4975269;28;20207;-83
2021/09/02 03:38:21;;;;;;;5.40;4.20;;;7.90;99.90;7.90;97607.00;;;;4973754;28;20207;-82
2021/09/02 03:41:12;;;;;;;7.50;6.80;;;7.90;99.90;7.80;97604.00;;;;4972478;28;20239;-81
2021/09/02 03:44:00;;;;;;;3.47;3.17;;;8.00;99.90;7.40;97603.00;;;;4971744;28;20219;-82
2021/09/02 03:46:49;;;;;;;4.03;3.30;;;9.50;99.90;7.60;97598.00;;;;4971082;28;20669;-81
2021/09/02 03:49:38;;;;;;;7.00;3.60;;;8.00;99.90;8.00;97603.00;;;;4970866;28;20258;-81
2021/09/02 03:52:27;;;;;;;3.77;3.37;;;8.10;99.90;8.20;97611.00;;;;4970891;28;20242;-81
2021/09/02 03:55:16;;;;;;;8.13;3.67;;;8.20;99.90;8.30;97618.00;;;;4971664;28;20203;-82
2021/09/02 03:58:08;;;;;;;3.40;3.10;;;8.30;99.90;7.70;97613.00;;;;4960664;28;20612;-82
2021/09/02 04:00:57;;;;;;;4.50;4.00;;;8.30;99.90;7.40;97601.00;;;;4969713;28;20687;-82
2021/09/02 04:03:46;;;;;;;4.23;3.20;;;8.20;99.90;7.40;97616.00;;;;4970592;28;20215;-81
2021/09/02 04:06:35;;;;;;;3.63;3.27;;;8.00;99.90;7.20;97615.00;;;;4970793;28;20227;-81
2021/09/02 04:09:24;;;;;;;6.80;3.67;;;7.90;99.90;7.00;97612.00;;;;4970918;28;20564;-81
2021/09/02 04:12:12;;;;;;;3.60;3.10;;;7.70;99.90;7.00;97617.00;;;;4971578;28;20238;-81
2021/09/02 04:15:03;;;;;;;4.13;3.30;;;7.60;99.90;7.10;97624.00;;;;4971110;28;20199;-81
2021/09/02 04:17:52;;;;;;;4.80;3.77;;;7.60;99.90;6.90;97617.00;;;;4969771;28;20215;-81
2021/09/02 04:20:40;;;;;;;5.80;3.57;;;7.60;99.90;7.00;97621.00;;;;4970209;28;20234;-81
2021/09/02 04:23:29;;;;;;;4.63;3.20;;;7.50;99.90;6.90;97621.00;;;;4970561;28;20210;-82
2021/09/02 04:26:19;;;;;;;5.63;3.93;;;7.50;99.90;6.90;97639.00;;;;4970618;28;20200;-81
2021/09/02 04:29:08;;;;;;;4.07;2.80;;;7.40;99.90;6.90;97636.00;;;;4971531;28;20203;-82
2021/09/02 04:31:58;;;;;;;5.00;3.60;;;7.40;99.90;7.10;97637.00;;;;4967216;28;20231;-81
2021/09/02 04:34:47;;;;;;;4.47;3.97;;;7.40;99.90;7.30;97639.00;;;;4971002;28;20207;-78
2021/09/02 04:37:38;;;;;;;4.60;3.43;;;7.50;99.90;7.60;97638.00;;;;4970417;28;20230;-80
2021/09/02 04:40:27;;;;;;;3.97;3.17;;;7.50;99.90;7.70;97633.00;;;;4969226;28;20235;-81
2021/09/02 04:43:16;;;;;;;4.37;3.60;;;7.70;99.90;7.90;97644.00;;;;4969544;28;20223;-80
2021/09/02 04:46:05;;;;;;;6.93;4.07;;;7.80;99.90;7.80;97642.00;;;;4969414;28;20211;-81
2021/09/02 04:48:55;;;;;;;4.93;3.90;;;7.80;99.90;7.70;97638.00;;;;4970467;28;20207;-80
2021/09/02 04:51:43;;;;;;;5.43;3.33;;;7.90;99.90;7.90;97641.00;;;;4968588;28;20242;-81
2021/09/02 04:54:32;;;;;;;4.97;3.57;;;8.00;99.90;8.10;97635.00;;;;4969489;28;20555;-80
2021/09/02 04:57:21;;;;;;;5.53;4.40;;;8.00;99.90;7.70;97633.00;;;;4969576;28;20702;-81
2021/09/02 05:00:12;;;;;;;3.97;3.40;;;8.10;99.90;7.70;97631.00;;;;4970145;28;20222;-81
2021/09/02 05:03:01;;;;;;;5.13;3.80;;;8.10;99.90;7.70;97642.00;;;;4969862;28;20218;-80
2021/09/02 05:05:51;;;;;;;4.80;3.40;;;8.10;99.90;8.00;97635.00;;;;4971920;28;20214;-81
2021/09/02 05:08:40;;;;;;;4.37;3.77;;;8.20;99.90;8.10;97642.00;;;;4969140;28;20210;-80
2021/09/02 05:11:28;;;;;;;5.30;3.53;;;8.20;99.90;8.20;97645.00;;;;4969127;28;20230;-82
2021/09/02 05:14:17;;;;;;;9.90;4.60;;;8.30;99.90;8.40;97644.00;;;;4970173;28;20214;-81
2021/09/02 05:17:06;;;;;;;4.40;3.67;;;8.40;99.90;8.10;97638.00;;;;4969563;28;20727;-81
2021/09/02 05:19:55;;;;;;;7.57;4.33;;;8.50;99.90;7.90;97643.00;;;;4968922;28;20218;-80
2021/09/02 05:22:46;;;;;;;6.27;4.43;;;8.50;99.90;7.80;97647.00;;;;4969615;28;20210;-79
2021/09/02 05:25:34;;;;;;;8.07;3.73;;;8.40;99.90;7.80;97637.00;;;;4970248;28;20207;-82
2021/09/02 05:28:23;;;;;;;6.07;3.73;;;8.30;99.90;8.10;97650.00;;;;4967793;28;20210;-80
2021/09/02 05:31:13;;;;;;;7.90;3.77;;;8.30;99.90;8.10;97640.00;;;;4964428;28;20223;-82
2021/09/02 05:34:02;;;;;;;4.37;3.83;;;8.40;99.90;8.40;97642.00;;;;4970952;28;20208;-81
2021/09/02 05:36:51;;;;;;;4.57;4.07;;;8.50;99.90;8.70;97646.00;;;;4968372;28;20207;-80
2021/09/02 05:39:41;;;;;;;4.17;3.70;;;8.70;99.90;9.00;97641.00;;;;4971795;28;20218;-82
2021/09/02 05:42:30;;;;;;;4.27;3.57;;;8.80;99.90;9.00;97652.00;;;;4970584;28;20218;-81
2021/09/02 05:45:18;;;;;;;5.17;3.67;;;9.00;99.90;9.30;97656.00;;;;4970691;28;20196;-82
2021/09/02 05:48:08;;;;;;;6.47;3.77;;;9.10;99.90;9.20;97660.00;;;;4961000;28;20199;-80
2021/09/02 05:50:57;;;;;;;7.73;2.97;;;9.20;99.90;9.10;97653.00;;;;4970636;28;20228;-81
2021/09/02 05:53:46;;;;;;;5.67;4.03;;;9.30;99.90;9.20;97643.00;;;;4970347;28;20238;-81
2021/09/02 05:56:36;;;;;;;3.93;3.57;;;9.40;99.90;9.50;97647.00;;;;4970137;28;20222;-81
2021/09/02 05:59:25;;;;;;;3.47;3.10;;;9.50;99.90;9.80;97645.00;;;;4968557;28;20206;-81
2021/09/02 06:02:13;;;;;;;4.27;3.13;;;9.60;99.90;9.80;97651.00;;;;4970270;28;20211;-81
2021/09/02 06:05:02;;;;;;;3.70;3.00;;;9.80;99.90;9.80;97647.00;;;;4969592;28;20218;-81
2021/09/02 06:07:51;;;;;;;4.97;3.73;;;9.90;99.90;9.90;97639.00;;;;4969141;28;20215;-80
2021/09/02 06:10:40;;;;;;;5.33;3.37;;;10.00;99.90;10.20;97638.00;;;;4969968;28;20235;-81
2021/09/02 06:13:30;;;;;;;4.43;3.37;;;10.10;99.90;10.20;97645.00;;;;4969214;28;20242;-80
2021/09/02 06:16:19;;;;;;;5.13;3.33;;;10.20;99.90;10.40;97642.00;;;;4963438;28;20214;-81
2021/09/02 06:19:08;;;;;;;3.63;3.20;;;10.30;99.90;10.40;97637.00;;;;4969296;28;20196;-82
2021/09/02 06:21:57;;;;;;;4.63;3.70;;;10.40;99.90;10.60;97638.00;;;;4967777;28;20220;-80
2021/09/02 06:24:46;;;;;;;5.23;3.20;;;10.50;99.90;10.60;97634.00;;;;4968880;28;20212;-80
2021/09/02 06:27:35;;;;;;;3.63;3.17;;;10.70;99.90;10.70;97624.00;;;;4968892;28;20211;-81
2021/09/02 06:30:25;;;;;;;4.03;3.13;;;10.70;99.90;11.00;97632.00;;;;4967153;28;20615;-80
2021/09/02 06:33:14;;;;;;;5.17;3.10;;;10.80;99.90;11.20;97633.00;;;;4964127;28;20235;-79
2021/09/02 06:36:03;;;;;;;6.43;3.17;;;11.00;99.90;11.30;97637.00;;;;4969437;28;20208;-82
2021/09/02 06:38:52;;;;;;;3.83;2.90;;;11.20;99.90;11.50;97629.00;;;;4970506;28;20219;-81
2021/09/02 06:41:41;;;;;;;4.67;3.37;;;11.30;99.90;11.80;97632.00;;;;4967770;28;20617;-80
2021/09/02 06:44:29;;;;;;;6.40;3.87;;;11.50;99.90;12.00;97629.00;;;;4969920;28;20700;-81
2021/09/02 06:47:23;;;;;;;6.00;3.73;;;11.70;99.90;12.30;97629.00;;;;4962295;28;20204;-81
2021/09/02 06:50:14;;;;;;;6.03;4.30;;;11.90;99.90;12.50;97634.00;;;;4967962;28;20637;-81
2021/09/02 06:53:02;;;;;;;6.20;4.37;;;12.10;99.90;12.70;97638.00;;;;4971379;28;20262;-80
2021/09/02 06:55:51;;;;;;;9.87;4.73;;;12.30;99.90;12.90;97634.00;;;;4971954;28;20199;-81
2021/09/02 06:58:40;;;;;;;6.40;4.23;;;12.50;99.90;13.10;97637.00;;;;4971553;28;20214;-81
2021/09/02 07:01:29;;;;;;;8.53;4.10;;;12.70;99.90;13.30;97641.00;;;;4969943;28;20232;-81
2021/09/02 07:04:19;;;;;;;8.20;4.30;;;12.90;99.90;13.60;97634.00;;;;4972561;28;20223;-81
2021/09/02 07:07:08;;;;;;;6.40;3.47;;;13.10;99.90;13.60;97634.00;;;;4967786;28;20203;-81
2021/09/02 07:09:57;;;;;;;4.63;3.90;;;13.30;99.90;13.90;97641.00;;;;4972365;28;20207;-81
2021/09/02 07:12:45;;;;;;;6.87;4.10;;;13.50;99.90;14.10;97634.00;;;;4970173;28;20223;-81
2021/09/02 07:15:34;;;;;;;8.43;4.47;;;13.70;99.90;14.30;97644.00;;;;4971677;28;20215;-81
2021/09/02 07:18:23;;;;;;;5.60;3.93;;;13.80;99.90;14.30;97643.00;;;;4972032;28;20203;-80
2021/09/02 07:21:13;;;;;;;6.23;4.10;;;14.00;99.90;14.40;97639.00;;;;4971888;28;20766;-81
2021/09/02 07:24:02;;;;;;;8.57;4.17;;;14.20;99.90;14.80;97641.00;;;;4971739;28;20203;-80
2021/09/02 07:26:51;;;;;;;6.33;3.97;;;14.30;99.90;15.10;97647.00;;;;4970870;28;20211;-81
2021/09/02 07:29:40;;;;;;;8.03;4.10;;;14.50;99.90;15.20;97645.00;;;;4974978;28;20218;-81
2021/09/02 07:32:30;;;;;;;6.23;3.87;;;14.70;99.90;15.30;97640.00;;;;4968082;28;20208;-81
2021/09/02 07:35:19;;;;;;;6.43;4.67;;;14.80;99.90;15.70;97644.00;;;;4958808;28;20695;-81
2021/09/02 07:38:09;;;;;;;6.23;3.97;;;15.00;99.90;16.00;97651.00;;;;4970387;28;20210;-81
2021/09/02 07:40:58;;;;;;;5.27;3.97;;;15.20;99.90;16.30;97653.00;;;;4971644;28;20234;-81
2021/09/02 07:43:47;;;;;;;8.87;4.33;;;15.50;99.90;16.60;97650.00;;;;4961658;28;20219;-82
2021/09/02 07:46:39;;;;;;;9.60;3.80;;;15.80;99.90;16.80;97656.00;;;;4970749;28;20200;-81
2021/09/02 07:49:27;;;;;;;7.67;5.80;;;16.00;99.90;17.20;97667.00;;;;4964467;28;20204;-81
2021/09/02 07:52:16;;;;;;;13.70;5.10;;;16.30;99.90;17.50;97657.00;;;;4968667;28;20542;-81
2021/09/02 07:55:11;;;;;;;5.67;3.93;;;16.60;99.90;17.70;97653.00;;;;4966779;28;20215;-81
2021/09/02 07:58:01;;;;;;;5.93;4.10;;;16.80;99.90;18.00;97652.00;;;;4968796;28;20203;-80
2021/09/02 08:00:50;;;;;;;8.03;3.43;;;17.10;99.90;18.10;97648.00;;;;4980328;28;20696;-79
2021/09/02 08:03:39;;;;;;;4.60;3.90;;;17.30;99.90;18.40;97653.00;;;;4972795;28;20580;-83
2021/09/02 08:06:28;;;;;;;5.60;3.60;;;17.60;99.90;18.50;97647.00;;;;4974662;28;20207;-82
2021/09/02 08:09:16;;;;;;;9.30;3.93;;;17.80;99.90;18.60;97646.00;;;;4973293;28;20204;-83
2021/09/02 08:12:07;;;;;;;4.03;3.63;;;18.00;99.90;18.50;97637.00;;;;4973502;28;20210;-82
2021/09/02 08:14:56;;;;;;;11.20;4.20;;;18.20;99.90;18.80;97652.00;;;;4974526;28;20222;-83
2021/09/02 08:17:45;;;;;;;5.73;4.07;;;18.20;99.90;19.10;97644.00;;;;4972154;28;20206;-83
2021/09/02 08:20:35;;;;;;;9.03;4.03;;;18.40;99.90;19.30;97660.00;;;;4972523;28;20228;-82
2021/09/02 08:23:24;;;;;;;5.87;4.07;;;18.50;99.90;19.50;97650.00;;;;4973256;28;20203;-81
2021/09/02 08:26:13;;;;;;;5.33;3.47;;;18.70;99.90;19.70;97650.00;;;;4970960;28;20564;-81
2021/09/02 08:29:03;;;;;;;4.13;3.60;;;18.90;99.90;19.90;97654.00;;;;4969998;28;20199;-81
2021/09/02 08:31:52;;;;;;;9.60;3.53;;;19.10;99.90;20.10;97648.00;;;;4961104;28;20231;-81
2021/09/02 08:34:40;;;;;;;8.53;3.83;;;19.20;99.90;20.00;97659.00;;;;4973496;28;20727;-83
2021/09/02 08:37:29;;;;;;;27.73;5.33;;;19.40;99.90;20.10;97647.00;;;;4973007;28;20222;-83
2021/09/02 08:40:20;;;;;;;5.50;3.83;;;19.50;99.90;20.30;97640.00;;;;4972586;28;20234;-81
2021/09/02 08:43:09;;;;;;;6.37;3.53;;;19.60;99.90;20.60;97637.00;;;;4968316;28;20237;-83
2021/09/02 08:46:00;;;;;;;4.20;3.30;;;19.80;99.90;20.70;97636.00;;;;4984873;28;20732;-83
2021/09/02 08:48:49;;;;;;;4.73;4.00;;;20.00;99.90;20.90;97646.00;;;;4975653;28;20215;-80
2021/09/02 08:51:40;;;;;;;4.37;3.60;;;20.10;99.90;20.90;97640.00;;;;4978837;28;20223;-80
2021/09/02 08:54:29;;;;;;;5.57;3.37;;;20.20;99.90;21.00;97641.00;;;;4972279;28;20227;-81
2021/09/02 08:57:18;;;;;;;4.10;3.50;;;20.40;99.90;21.10;97643.00;;;;4972573;28;20225;-79
2021/09/02 09:00:10;;;;;;;3.83;3.43;;;20.50;98.80;21.40;97643.00;;;;4971308;28;20825;-78
2021/09/02 09:03:04;;;;;;;5.07;2.93;;;20.70;99.20;21.50;97641.00;;;;4965768;28;20216;-80
2021/09/02 09:05:54;;;;;;;4.20;3.50;;;20.80;98.90;21.60;97642.00;;;;4969097;28;20203;-80
2021/09/02 09:08:44;;;;;;;3.30;2.77;;;21.00;96.10;21.60;97648.00;;;;4956815;28;20211;-81
2021/09/02 09:11:33;;;;;;;3.97;3.30;;;21.10;94.70;22.10;97646.00;;;;4968863;28;20242;-80
2021/09/02 09:14:26;;;;;;;3.60;3.17;;;21.30;94.20;22.30;97647.00;;;;4966615;28;20229;-81
2021/09/02 09:17:25;;;;;;;5.70;3.17;;;21.40;92.40;22.40;97646.00;;;;4963959;28;20700;-81
2021/09/02 09:20:34;;;;;;;3.97;3.30;;;21.60;92.10;22.60;97642.00;;;;4969896;28;20231;-80
2021/09/02 09:23:23;;;;;;;4.17;3.77;;;21.80;90.30;22.60;97633.00;;;;4970139;28;20207;-80
2021/09/02 09:26:12;;;;;;;4.80;3.90;;;21.90;88.90;22.90;97635.00;;;;4967312;28;20200;-80
2021/09/02 09:29:03;;;;;;;7.60;3.63;;;22.00;90.00;23.20;97639.00;;;;4975044;28;20577;-80
2021/09/02 09:31:52;;;;;;;4.20;3.30;;;22.20;89.30;23.40;97642.00;;;;4981673;28;20242;-79
2021/09/02 09:34:51;;;;;;;3.40;2.80;;;22.40;89.00;23.40;97631.00;;;;4974123;28;20227;-80
2021/09/02 09:37:42;;;;;;;4.87;3.13;;;22.60;85.90;23.80;97628.00;;;;4968333;28;20215;-82
2021/09/02 09:40:31;;;;;;;3.37;2.80;;;22.70;83.50;23.90;97630.00;;;;4970506;28;20227;-82
2021/09/02 09:43:23;;;;;;;2.73;2.40;;;22.90;82.50;23.30;97630.00;;;;4969589;28;20222;-81
2021/09/02 09:46:12;;;;;;;3.57;2.87;;;23.00;71.90;23.70;97623.00;;;;4971370;28;20211;-81
2021/09/02 09:49:01;;;;;;;3.00;2.70;;;23.00;74.10;24.00;97626.00;;;;4970486;28;20211;-80
2021/09/02 09:51:49;;;;;;;3.37;3.00;;;23.10;73.60;23.60;97617.00;;;;4963751;28;20220;-80
2021/09/02 09:54:39;;;;;;;3.77;2.90;;;23.10;68.80;22.40;97623.00;;;;4968786;28;20231;-81
2021/09/02 09:57:31;;;;;;;3.53;2.53;;;22.90;64.60;23.70;97622.00;;;;4970535;28;20212;-81
2021/09/02 10:00:21;;;;;;;2.60;1.97;;;22.90;69.70;24.40;97616.00;;;;4969965;28;20230;-81
2021/09/02 10:03:10;;;;;;;3.20;2.37;;;23.20;70.50;24.70;97620.00;;;;4969942;28;20269;-81
2021/09/02 10:06:05;;;;;;;3.43;2.53;;;23.50;68.50;24.90;97622.00;;;;4970203;28;20207;-81
2021/09/02 10:08:55;;;;;;;3.23;2.53;;;23.70;67.20;24.30;97606.00;;;;4968591;28;20212;-83
2021/09/02 10:11:47;;;;;;;3.03;2.13;;;23.90;61.80;24.50;97612.00;;;;4968903;28;20230;-82
2021/09/02 10:14:36;;;;;;;3.47;2.60;;;23.90;63.20;24.80;97611.00;;;;4971131;28;20712;-82
2021/09/02 10:17:25;;;;;;;3.50;2.83;;;24.10;61.60;24.80;97604.00;;;;4966501;28;20555;-83
2021/09/02 10:20:19;;;;;;;3.07;2.50;;;24.20;61.00;24.60;97602.00;;;;4968099;28;20708;-80
2021/09/02 10:23:08;;;;;;;2.87;2.43;;;24.20;61.30;25.00;97603.00;;;;4970822;28;20200;-82
2021/09/02 10:25:58;;;;;;;5.63;3.07;;;24.30;60.60;25.30;97605.00;;;;4971367;28;20218;-80
2021/09/02 10:28:48;;;;;;;3.00;2.43;;;24.50;61.00;25.00;97607.00;;;;4973550;28;20204;-80
2021/09/02 10:31:37;;;;;;;3.00;2.63;;;24.60;58.70;25.60;97606.00;;;;4971752;28;20231;-81
2021/09/02 10:34:29;;;;;;;3.23;2.50;;;24.70;60.40;25.70;97612.00;;;;4973097;28;20223;-81
2021/09/02 10:37:53;;;;;;;2.73;2.30;;;24.90;60.10;23.90;97592.00;;;;4973298;28;20200;-83
2021/09/02 10:40:50;;;;;;;3.30;2.43;;;24.90;57.80;25.20;97595.00;;;;4967105;28;20250;-81
2021/09/02 10:43:53;;;;;;;3.37;2.53;;;24.80;59.50;25.10;97601.00;;;;4973463;28;20223;-81
2021/09/02 10:46:44;;;;;;;2.47;2.27;;;24.90;59.40;25.70;97596.00;;;;4964971;28;20593;-82
2021/09/02 10:49:35;;;;;;;3.13;2.83;;;25.10;58.70;25.40;97596.00;;;;4974205;28;20718;-81
2021/09/02 10:52:47;;;;;;;2.53;2.13;;;25.20;59.10;24.60;97591.00;;;;4974147;28;20213;-80
2021/09/02 10:55:41;;;;;;;4.00;2.97;;;25.30;57.40;25.70;97598.00;;;;4973029;28;20236;-81
2021/09/02 10:58:50;;;;;;;3.10;2.80;;;25.10;58.30;25.40;97591.00;;;;4972947;28;20214;-81
2021/09/02 11:01:40;;;;;;;3.80;2.67;;;25.40;59.10;26.90;97601.00;;;;4972081;28;20234;-81
2021/09/02 11:04:30;;;;;;;3.47;3.17;;;25.60;59.80;26.20;97600.00;;;;4964822;28;20208;-83
2021/09/02 11:07:18;;;;;;;3.40;2.77;;;25.90;57.10;26.80;97593.00;;;;4972800;28;20219;-81
2021/09/02 11:10:13;;;;;;;4.57;3.10;;;26.20;57.40;27.40;97590.00;;;;4973023;28;20729;-81
2021/09/02 11:13:05;;;;;;;4.17;2.83;;;26.50;58.10;28.50;97594.00;;;;4974819;28;20204;-81
2021/09/02 11:15:55;;;;;;;3.60;3.07;;;27.00;58.70;28.70;97585.00;;;;4973699;28;20601;-81
2021/09/02 11:18:46;;;;;;;3.30;2.83;;;27.40;57.40;26.70;97587.00;;;;4973145;28;20217;-81
2021/09/02 11:21:36;;;;;;;3.85;2.60;;;27.40;53.90;28.20;97581.00;;;;4973656;28;20238;-80
2021/09/02 11:24:26;;;;;;;3.33;3.03;;;27.50;54.50;28.60;97581.00;;;;4972821;28;20207;-81
2021/09/02 11:27:27;;;;;;;4.90;2.85;;;27.70;55.50;29.30;97577.00;;;;4962337;28;20213;-82
2021/09/02 11:30:20;;;;;;;3.47;3.17;;;27.90;55.10;29.00;97569.00;;;;4972218;28;20228;-82
2021/09/02 11:33:10;;;;;;;3.80;3.05;;;28.20;52.90;29.80;97575.00;;;;4972609;28;20210;-81
2021/09/02 11:36:00;;;;;;;2.65;2.42;;;28.50;53.20;28.30;97629.00;;;;4971518;28;20229;-81
2021/09/02 11:38:50;;;;;;;4.15;2.85;;;28.50;52.60;28.20;97572.00;;;;4970598;28;20603;-81
2021/09/02 11:41:39;;;;;;;5.43;2.85;;;28.10;53.30;28.80;97567.00;;;;4970696;28;20234;-81
2021/09/02 11:44:31;;;;;;;3.90;2.72;;;28.10;52.80;29.70;97566.00;;;;4973034;28;20214;-80
2021/09/02 11:47:20;;;;;;;3.45;3.13;;;28.30;53.20;29.80;97558.00;;;;4971486;28;20694;-80
2021/09/02 11:50:11;;;;;;;2.80;2.53;;;28.50;53.10;29.70;97566.00;;;;4974204;28;20701;-81
2021/09/02 11:53:00;;;;;;;3.47;2.88;;;28.70;52.50;30.40;97560.00;;;;4973495;28;20221;-82
2021/09/02 11:55:49;;;;;;;2.88;2.40;;;29.00;52.20;30.50;97559.00;;;;4972133;28;20216;-82
2021/09/02 11:58:38;;;;;;;6.57;2.80;;;29.20;51.90;30.70;97555.00;;;;4971953;28;20214;-80
2021/09/02 12:01:27;;;;;;;3.85;2.95;;;29.40;51.30;31.40;97556.00;;;;4971848;28;20211;-83
2021/09/02 12:04:22;;;;;;;4.65;3.20;;;29.80;51.10;31.10;97558.00;;;;4973173;28;20223;-82
2021/09/02 12:07:14;;;;;;;3.50;3.00;;;30.10;50.10;31.10;97550.00;;;;4971847;28;20232;-82
2021/09/02 12:10:04;;;;;;;3.22;2.92;;;30.40;48.30;32.00;97541.00;;;;4971144;28;20223;-81
2021/09/02 12:12:53;;;;;;;2.67;2.47;;;30.60;49.70;28.70;97530.00;;;;4972483;28;20563;-83
2021/09/02 12:15:44;;;;;;;3.30;2.67;;;30.20;47.50;29.10;97537.00;;;;4972165;28;20339;-81
2021/09/02 12:18:34;;;;;;;3.80;3.33;;;29.60;48.60;30.70;97550.00;;;;4971228;28;20205;-83
2021/09/02 12:21:28;;;;;;;3.22;2.83;;;29.60;49.70;31.60;97554.00;;;;4971944;28;20238;-83
2021/09/02 12:24:20;;;;;;;3.70;3.08;;;29.80;49.80;31.20;97549.00;;;;4971642;28;20676;-81
2021/09/02 12:27:09;;;;;;;3.58;3.28;;;30.10;48.70;31.70;97545.00;;;;4971063;28;20716;-82
2021/09/02 12:29:58;;;;;;;4.25;3.38;;;30.40;48.70;32.60;97538.00;;;;4969959;28;20218;-82
2021/09/02 12:32:46;;;;;;;4.28;3.78;;;30.80;49.20;31.30;97538.00;;;;4969924;28;20317;-82
2021/09/02 12:35:40;;;;;;;5.40;3.42;;;30.90;47.30;31.70;97533.00;;;;4971451;28;20207;-81
2021/09/02 12:38:35;;;;;;;3.40;2.80;;;31.00;48.70;30.80;97607.00;;;;4960047;28;20207;-82
2021/09/02 12:41:26;;;;;;;3.40;3.10;;;30.80;47.60;29.00;97608.00;;;;4970062;28;20219;-81
2021/09/02 12:44:22;;;;;;;3.85;3.30;;;30.30;47.10;29.50;97537.00;;;;4969036;28;20207;-83